Flag for France

Past Weather in 49°26'35.5"N, 1°03'17.1"E, France — Yesterday and Last 2 Weeks

Currently: 55 °F. Light rain. Overcast. (Weather station: Rouen Airport, France). See more current weather

Past Weather in 49°26'35.5"N, 1°03'17.1"E — Graph

°F

49°26'35.5"N, 1°03'17.1"E Temperature Yesterday

Maximum temperature yesterday: 68 °F (at 5:30 pm)
Minimum temperature yesterday: 50 °F (at 2:00 am)
Average temperature yesterday: 58 °F

High & Low Weather Summary for the Past Weeks

 TemperatureHumidityPressure
High77 °F (May 12, 1:30 pm)100% (May 6, 12:30 am)30.39 "Hg (May 6, 12:30 am)
Low43 °F (May 9, 4:30 am)41% (May 11, 1:30 pm)29.56 "Hg (May 14, 3:30 am)
Average58 °F81%29.93 "Hg
* Reported May 5 11:00 pm — May 20 11:00 pm, 49°26'35.5"N, 1°03'17.1"E. Weather by CustomWeather, © 2024

Note: Actual official high and low records may vary slightly from our data, if they occured in-between our weather recording intervals... More about our weather records

49°26'35.5"N, 1°03'17.1"E Weather History for the Previous 24 Hours

Scroll right to see more
 ConditionsComfort  
Time TempWeatherWind HumidityBarometerVisibility
11:00 pm
Mon, May 20
55 °FLight rain. Overcast.5 mph94%29.80 "HgN/A
10:30 pm55 °FRain. Overcast.9 mph94%29.83 "Hg5 mi
10:00 pm57 °FMostly cloudy.6 mph88%29.83 "HgN/A
9:30 pm59 °FMostly cloudy.10 mph77%29.83 "HgN/A
9:00 pm61 °FThundershowers. Broken clouds.10 mph77%29.83 "HgN/A
8:30 pm63 °FMostly cloudy.9 mph73%29.80 "HgN/A
8:00 pm63 °FThundershowers. Partly sunny.13 mph73%29.80 "HgN/A
7:30 pm64 °FScattered clouds.13 mph73%29.80 "HgN/A
7:00 pm64 °FMild.13 mph68%29.80 "HgN/A
6:30 pm64 °FMild.12 mph68%29.80 "HgN/A
6:00 pm66 °FScattered clouds.13 mph68%29.80 "HgN/A
5:30 pm68 °FPassing clouds.13 mph64%29.80 "HgN/A
5:00 pm66 °FBroken clouds.10 mph73%29.83 "Hg6 mi
4:00 pm66 °FPartly sunny.13 mph68%29.83 "Hg4 mi
3:00 pm64 °FFog.15 mph73%29.86 "Hg3 mi
2:30 pm64 °FPartly sunny.14 mph78%29.86 "Hg5 mi
2:00 pm64 °FPartly sunny.12 mph78%29.86 "Hg6 mi
1:30 pm64 °FPartly sunny.9 mph78%29.89 "Hg5 mi
1:00 pm64 °FPartly sunny.10 mph73%29.89 "Hg4 mi
12:30 pm63 °FScattered clouds.10 mph77%29.89 "Hg4 mi
12:00 pm61 °FPartly sunny.10 mph83%29.89 "Hg5 mi
11:30 am63 °FScattered clouds.9 mph77%29.89 "Hg5 mi
11:00 am63 °FPassing clouds.8 mph83%29.89 "Hg4 mi
10:30 am61 °FPartly sunny.7 mph83%29.89 "Hg5 mi
10:00 am57 °FFog.5 mph94%29.89 "Hg3 mi
9:00 am54 °FFog.7 mph100%29.89 "Hg2 mi
8:30 am52 °FFog.9 mph100%29.89 "Hg1 mi
8:00 am52 °FFog.7 mph100%29.89 "Hg1 mi
7:30 am50 °FFog.7 mph100%29.89 "Hg1 mi
7:00 am50 °FFog.8 mph100%29.89 "Hg1 mi
6:30 am50 °FFog.7 mph100%29.89 "Hg1 mi
6:00 am50 °FFog.7 mph100%29.89 "Hg1 mi
5:30 am50 °FFog.2 mph100%29.89 "Hg1 mi
5:00 am50 °FFog.6 mph100%29.89 "Hg1 mi
4:30 am50 °FDense fog.3 mph100%29.89 "Hg1 mi
4:00 am50 °FFog.5 mph100%29.89 "Hg0 mi
3:00 am50 °FFog.6 mph100%29.89 "Hg2 mi
2:30 am50 °FFog.7 mph100%29.89 "Hg2 mi
2:00 am50 °FFog.6 mph100%29.92 "Hg2 mi
1:30 am52 °FFog.6 mph100%29.92 "Hg2 mi
1:00 am52 °FFog.7 mph94%29.92 "Hg2 mi
12:30 am52 °FFog.8 mph100%29.92 "Hg2 mi
12:00 am52 °FFog.6 mph100%29.92 "Hg2 mi
Weather by CustomWeather, © 2024

See weather overview